sensor_id;sensor_type;location;lat;lon;timestamp;P1;durP1;ratioP1;P2;durP2;ratioP2
84852;SDS011;75109;47.440;19.310;2024-03-06T00:00:16;48.77;;;47.23;;
84852;SDS011;75109;47.440;19.310;2024-03-06T00:00:50;48.83;;;47.80;;
84852;SDS011;75109;47.440;19.310;2024-03-06T00:01:23;46.93;;;46.80;;
84852;SDS011;75109;47.440;19.310;2024-03-06T00:01:55;45.47;;;45.17;;
84852;SDS011;75109;47.440;19.310;2024-03-06T00:02:29;45.17;;;45.17;;
84852;SDS011;75109;47.440;19.310;2024-03-06T00:03:04;45.93;;;45.93;;
84852;SDS011;75109;47.440;19.310;2024-03-06T00:03:38;44.73;;;44.70;;
84852;SDS011;75109;47.440;19.310;2024-03-06T00:04:10;45.30;;;44.80;;
84852;SDS011;75109;47.440;19.310;2024-03-06T00:04:43;46.70;;;46.03;;
84852;SDS011;75109;47.440;19.310;2024-03-06T00:05:14;46.33;;;46.17;;
84852;SDS011;75109;47.440;19.310;2024-03-06T00:05:48;46.47;;;46.27;;
84852;SDS011;75109;47.440;19.310;2024-03-06T00:06:24;43.83;;;43.63;;
84852;SDS011;75109;47.440;19.310;2024-03-06T00:06:57;46.30;;;45.67;;
84852;SDS011;75109;47.440;19.310;2024-03-06T00:07:30;46.67;;;46.67;;
84852;SDS011;75109;47.440;19.310;2024-03-06T00:08:09;45.87;;;45.57;;
84852;SDS011;75109;47.440;19.310;2024-03-06T00:08:42;46.50;;;45.87;;
84852;SDS011;75109;47.440;19.310;2024-03-06T00:09:15;47.73;;;46.60;;
84852;SDS011;75109;47.440;19.310;2024-03-06T00:09:48;43.20;;;43.17;;
84852;SDS011;75109;47.440;19.310;2024-03-06T00:10:21;43.97;;;43.97;;
84852;SDS011;75109;47.440;19.310;2024-03-06T00:10:53;45.73;;;45.73;;
84852;SDS011;75109;47.440;19.310;2024-03-06T00:11:26;45.10;;;45.10;;
84852;SDS011;75109;47.440;19.310;2024-03-06T00:11:59;46.03;;;45.47;;
84852;SDS011;75109;47.440;19.310;2024-03-06T00:12:31;46.50;;;45.13;;
84852;SDS011;75109;47.440;19.310;2024-03-06T00:13:04;44.90;;;44.50;;
84852;SDS011;75109;47.440;19.310;2024-03-06T00:13:36;42.50;;;41.90;;
84852;SDS011;75109;47.440;19.310;2024-03-06T00:14:10;42.30;;;42.17;;
84852;SDS011;75109;47.440;19.310;2024-03-06T00:14:44;42.13;;;42.13;;
84852;SDS011;75109;47.440;19.310;2024-03-06T00:15:17;42.33;;;42.30;;
84852;SDS011;75109;47.440;19.310;2024-03-06T00:15:49;41.83;;;41.60;;
84852;SDS011;75109;47.440;19.310;2024-03-06T00:16:21;41.33;;;40.80;;
84852;SDS011;75109;47.440;19.310;2024-03-06T00:16:54;42.17;;;42.13;;
84852;SDS011;75109;47.440;19.310;2024-03-06T00:17:27;43.03;;;42.80;;
84852;SDS011;75109;47.440;19.310;2024-03-06T00:17:59;44.67;;;43.57;;
84852;SDS011;75109;47.440;19.310;2024-03-06T00:18:34;45.57;;;43.77;;
84852;SDS011;75109;47.440;19.310;2024-03-06T00:19:06;44.93;;;43.10;;
84852;SDS011;75109;47.440;19.310;2024-03-06T00:19:38;45.47;;;43.63;;
84852;SDS011;75109;47.440;19.310;2024-03-06T00:20:11;45.27;;;43.60;;
84852;SDS011;75109;47.440;19.310;2024-03-06T00:20:43;45.60;;;44.07;;
84852;SDS011;75109;47.440;19.310;2024-03-06T00:21:16;44.33;;;44.00;;
84852;SDS011;75109;47.440;19.310;2024-03-06T00:21:49;43.57;;;43.43;;
84852;SDS011;75109;47.440;19.310;2024-03-06T00:22:22;44.87;;;44.17;;
84852;SDS011;75109;47.440;19.310;2024-03-06T00:22:54;42.80;;;41.70;;
84852;SDS011;75109;47.440;19.310;2024-03-06T00:23:26;42.70;;;42.63;;
84852;SDS011;75109;47.440;19.310;2024-03-06T00:23:58;41.97;;;41.97;;
84852;SDS011;75109;47.440;19.310;2024-03-06T00:24:30;43.93;;;42.97;;
84852;SDS011;75109;47.440;19.310;2024-03-06T00:25:04;41.87;;;41.60;;
84852;SDS011;75109;47.440;19.310;2024-03-06T00:25:37;41.23;;;41.23;;
84852;SDS011;75109;47.440;19.310;2024-03-06T00:26:10;41.47;;;41.47;;
84852;SDS011;75109;47.440;19.310;2024-03-06T00:26:44;42.70;;;42.43;;
84852;SDS011;75109;47.440;19.310;2024-03-06T00:27:17;45.03;;;44.17;;
84852;SDS011;75109;47.440;19.310;2024-03-06T00:27:49;45.53;;;44.20;;
84852;SDS011;75109;47.440;19.310;2024-03-06T00:28:21;43.97;;;43.10;;
84852;SDS011;75109;47.440;19.310;2024-03-06T00:29:04;42.53;;;42.13;;
84852;SDS011;75109;47.440;19.310;2024-03-06T00:29:39;42.40;;;42.30;;
84852;SDS011;75109;47.440;19.310;2024-03-06T00:30:11;41.67;;;41.67;;
84852;SDS011;75109;47.440;19.310;2024-03-06T00:30:58;42.00;;;41.63;;
84852;SDS011;75109;47.440;19.310;2024-03-06T00:31:30;43.50;;;42.80;;
84852;SDS011;75109;47.440;19.310;2024-03-06T00:32:06;43.50;;;43.27;;
84852;SDS011;75109;47.440;19.310;2024-03-06T00:32:39;43.40;;;42.70;;
84852;SDS011;75109;47.440;19.310;2024-03-06T00:33:34;43.13;;;42.67;;
84852;SDS011;75109;47.440;19.310;2024-03-06T00:34:14;40.63;;;40.40;;
84852;SDS011;75109;47.440;19.310;2024-03-06T00:34:47;43.53;;;42.40;;
84852;SDS011;75109;47.440;19.310;2024-03-06T00:35:21;43.73;;;43.13;;
84852;SDS011;75109;47.440;19.310;2024-03-06T00:35:56;42.17;;;41.87;;
84852;SDS011;75109;47.440;19.310;2024-03-06T00:36:29;42.17;;;41.50;;
84852;SDS011;75109;47.440;19.310;2024-03-06T00:37:03;41.80;;;40.60;;
84852;SDS011;75109;47.440;19.310;2024-03-06T00:37:37;41.00;;;40.47;;
84852;SDS011;75109;47.440;19.310;2024-03-06T00:38:34;42.50;;;41.83;;
84852;SDS011;75109;47.440;19.310;2024-03-06T00:39:06;41.23;;;41.07;;
84852;SDS011;75109;47.440;19.310;2024-03-06T00:39:40;43.63;;;42.93;;
84852;SDS011;75109;47.440;19.310;2024-03-06T00:40:12;41.57;;;41.03;;
84852;SDS011;75109;47.440;19.310;2024-03-06T00:40:45;42.57;;;41.70;;
84852;SDS011;75109;47.440;19.310;2024-03-06T00:41:18;42.47;;;42.10;;
84852;SDS011;75109;47.440;19.310;2024-03-06T00:41:52;42.90;;;42.03;;
84852;SDS011;75109;47.440;19.310;2024-03-06T00:42:27;41.90;;;41.00;;
84852;SDS011;75109;47.440;19.310;2024-03-06T00:42:59;42.53;;;41.40;;
84852;SDS011;75109;47.440;19.310;2024-03-06T00:43:32;43.63;;;42.87;;
84852;SDS011;75109;47.440;19.310;2024-03-06T00:44:05;45.80;;;44.50;;
84852;SDS011;75109;47.440;19.310;2024-03-06T00:44:39;42.47;;;42.13;;
84852;SDS011;75109;47.440;19.310;2024-03-06T00:45:13;43.90;;;42.63;;
84852;SDS011;75109;47.440;19.310;2024-03-06T00:45:46;43.77;;;42.07;;
84852;SDS011;75109;47.440;19.310;2024-03-06T00:46:18;42.37;;;41.93;;
84852;SDS011;75109;47.440;19.310;2024-03-06T00:46:50;43.17;;;42.07;;
84852;SDS011;75109;47.440;19.310;2024-03-06T00:47:23;42.97;;;42.93;;
84852;SDS011;75109;47.440;19.310;2024-03-06T00:47:55;41.60;;;41.60;;
84852;SDS011;75109;47.440;19.310;2024-03-06T00:48:27;42.27;;;42.07;;
84852;SDS011;75109;47.440;19.310;2024-03-06T00:49:05;42.07;;;41.37;;
84852;SDS011;75109;47.440;19.310;2024-03-06T00:49:37;45.33;;;44.37;;
84852;SDS011;75109;47.440;19.310;2024-03-06T00:50:15;42.70;;;42.10;;
84852;SDS011;75109;47.440;19.310;2024-03-06T00:50:52;43.07;;;41.80;;
84852;SDS011;75109;47.440;19.310;2024-03-06T00:51:25;42.97;;;42.20;;
84852;SDS011;75109;47.440;19.310;2024-03-06T00:52:00;42.93;;;42.70;;
84852;SDS011;75109;47.440;19.310;2024-03-06T00:52:32;41.30;;;41.13;;
84852;SDS011;75109;47.440;19.310;2024-03-06T00:53:05;45.20;;;43.83;;
84852;SDS011;75109;47.440;19.310;2024-03-06T00:53:39;43.70;;;42.50;;
84852;SDS011;75109;47.440;19.310;2024-03-06T00:54:12;43.17;;;42.13;;
84852;SDS011;75109;47.440;19.310;2024-03-06T00:54:46;45.30;;;43.67;;
84852;SDS011;75109;47.440;19.310;2024-03-06T00:55:18;41.67;;;41.33;;
84852;SDS011;75109;47.440;19.310;2024-03-06T00:55:51;40.93;;;40.37;;
84852;SDS011;75109;47.440;19.310;2024-03-06T00:56:44;43.43;;;42.07;;
84852;SDS011;75109;47.440;19.310;2024-03-06T00:57:17;44.53;;;43.30;;
84852;SDS011;75109;47.440;19.310;2024-03-06T00:57:51;43.07;;;42.23;;
84852;SDS011;75109;47.440;19.310;2024-03-06T00:58:23;42.33;;;42.10;;
84852;SDS011;75109;47.440;19.310;2024-03-06T00:58:58;41.43;;;41.40;;
84852;SDS011;75109;47.440;19.310;2024-03-06T00:59:31;41.73;;;41.67;;
84852;SDS011;75109;47.440;19.310;2024-03-06T01:00:03;43.87;;;42.83;;
84852;SDS011;75109;47.440;19.310;2024-03-06T01:00:42;42.97;;;42.37;;
84852;SDS011;75109;47.440;19.310;2024-03-06T01:01:14;44.37;;;43.03;;
84852;SDS011;75109;47.440;19.310;2024-03-06T01:01:47;43.23;;;42.53;;
84852;SDS011;75109;47.440;19.310;2024-03-06T01:02:19;43.00;;;43.00;;
84852;SDS011;75109;47.440;19.310;2024-03-06T01:02:51;42.20;;;42.07;;
84852;SDS011;75109;47.440;19.310;2024-03-06T01:03:25;42.60;;;42.57;;
84852;SDS011;75109;47.440;19.310;2024-03-06T01:04:00;43.10;;;42.53;;
84852;SDS011;75109;47.440;19.310;2024-03-06T01:04:41;45.10;;;44.10;;
84852;SDS011;75109;47.440;19.310;2024-03-06T01:05:14;43.77;;;43.00;;
84852;SDS011;75109;47.440;19.310;2024-03-06T01:05:49;45.63;;;44.00;;
84852;SDS011;75109;47.440;19.310;2024-03-06T01:06:21;46.23;;;44.90;;
84852;SDS011;75109;47.440;19.310;2024-03-06T01:06:56;43.10;;;42.60;;
84852;SDS011;75109;47.440;19.310;2024-03-06T01:07:30;44.80;;;43.40;;
84852;SDS011;75109;47.440;19.310;2024-03-06T01:08:03;46.70;;;45.10;;
84852;SDS011;75109;47.440;19.310;2024-03-06T01:08:37;46.23;;;44.70;;
84852;SDS011;75109;47.440;19.310;2024-03-06T01:09:09;43.60;;;43.47;;
84852;SDS011;75109;47.440;19.310;2024-03-06T01:09:41;43.43;;;43.33;;
84852;SDS011;75109;47.440;19.310;2024-03-06T01:10:15;43.30;;;42.93;;
84852;SDS011;75109;47.440;19.310;2024-03-06T01:10:47;44.93;;;43.87;;
84852;SDS011;75109;47.440;19.310;2024-03-06T01:11:30;45.67;;;44.23;;
84852;SDS011;75109;47.440;19.310;2024-03-06T01:12:02;46.03;;;44.37;;
84852;SDS011;75109;47.440;19.310;2024-03-06T01:12:37;47.93;;;46.23;;
84852;SDS011;75109;47.440;19.310;2024-03-06T01:13:10;47.00;;;45.97;;
84852;SDS011;75109;47.440;19.310;2024-03-06T01:13:43;45.83;;;45.53;;
84852;SDS011;75109;47.440;19.310;2024-03-06T01:14:15;47.23;;;46.20;;
84852;SDS011;75109;47.440;19.310;2024-03-06T01:14:49;46.77;;;45.53;;
84852;SDS011;75109;47.440;19.310;2024-03-06T01:15:28;45.37;;;44.40;;
84852;SDS011;75109;47.440;19.310;2024-03-06T01:16:01;47.20;;;46.03;;
84852;SDS011;75109;47.440;19.310;2024-03-06T01:16:34;44.93;;;44.17;;
84852;SDS011;75109;47.440;19.310;2024-03-06T01:17:06;44.97;;;44.97;;
84852;SDS011;75109;47.440;19.310;2024-03-06T01:17:39;46.50;;;46.23;;
84852;SDS011;75109;47.440;19.310;2024-03-06T01:18:11;48.30;;;46.93;;
84852;SDS011;75109;47.440;19.310;2024-03-06T01:18:43;47.30;;;46.93;;
84852;SDS011;75109;47.440;19.310;2024-03-06T01:19:16;46.77;;;45.77;;
84852;SDS011;75109;47.440;19.310;2024-03-06T01:19:49;46.83;;;45.30;;
84852;SDS011;75109;47.440;19.310;2024-03-06T01:20:22;47.23;;;45.90;;
84852;SDS011;75109;47.440;19.310;2024-03-06T01:20:57;45.83;;;44.57;;
84852;SDS011;75109;47.440;19.310;2024-03-06T01:21:29;45.30;;;44.03;;
84852;SDS011;75109;47.440;19.310;2024-03-06T01:22:01;45.57;;;44.13;;
84852;SDS011;75109;47.440;19.310;2024-03-06T01:22:34;48.03;;;46.43;;
84852;SDS011;75109;47.440;19.310;2024-03-06T01:23:07;46.43;;;44.70;;
84852;SDS011;75109;47.440;19.310;2024-03-06T01:23:40;48.00;;;46.20;;
84852;SDS011;75109;47.440;19.310;2024-03-06T01:24:12;45.83;;;45.73;;
84852;SDS011;75109;47.440;19.310;2024-03-06T01:24:46;47.50;;;47.10;;
84852;SDS011;75109;47.440;19.310;2024-03-06T01:25:21;48.13;;;47.43;;
84852;SDS011;75109;47.440;19.310;2024-03-06T01:25:58;45.57;;;45.10;;
84852;SDS011;75109;47.440;19.310;2024-03-06T01:26:30;44.67;;;44.03;;
84852;SDS011;75109;47.440;19.310;2024-03-06T01:27:02;47.10;;;45.50;;
84852;SDS011;75109;47.440;19.310;2024-03-06T01:27:42;45.93;;;45.50;;
84852;SDS011;75109;47.440;19.310;2024-03-06T01:28:15;47.83;;;46.73;;
84852;SDS011;75109;47.440;19.310;2024-03-06T01:28:48;48.43;;;46.97;;
84852;SDS011;75109;47.440;19.310;2024-03-06T01:29:20;48.40;;;47.37;;
84852;SDS011;75109;47.440;19.310;2024-03-06T01:29:52;48.30;;;47.70;;
84852;SDS011;75109;47.440;19.310;2024-03-06T01:30:24;49.17;;;47.53;;
84852;SDS011;75109;47.440;19.310;2024-03-06T01:30:57;48.60;;;47.03;;
84852;SDS011;75109;47.440;19.310;2024-03-06T01:31:30;46.90;;;46.17;;
84852;SDS011;75109;47.440;19.310;2024-03-06T01:32:02;47.67;;;46.80;;
84852;SDS011;75109;47.440;19.310;2024-03-06T01:32:35;48.63;;;47.43;;
84852;SDS011;75109;47.440;19.310;2024-03-06T01:33:08;46.87;;;45.87;;
84852;SDS011;75109;47.440;19.310;2024-03-06T01:33:42;49.20;;;47.80;;
84852;SDS011;75109;47.440;19.310;2024-03-06T01:34:14;48.00;;;46.40;;
84852;SDS011;75109;47.440;19.310;2024-03-06T01:34:47;48.87;;;47.03;;
84852;SDS011;75109;47.440;19.310;2024-03-06T01:35:22;49.50;;;47.73;;
84852;SDS011;75109;47.440;19.310;2024-03-06T01:35:58;47.67;;;47.17;;
84852;SDS011;75109;47.440;19.310;2024-03-06T01:36:31;50.33;;;49.07;;
84852;SDS011;75109;47.440;19.310;2024-03-06T01:37:04;50.13;;;49.07;;
84852;SDS011;75109;47.440;19.310;2024-03-06T01:37:37;47.47;;;46.10;;
84852;SDS011;75109;47.440;19.310;2024-03-06T01:38:11;44.77;;;44.70;;
84852;SDS011;75109;47.440;19.310;2024-03-06T01:38:43;44.53;;;44.50;;
84852;SDS011;75109;47.440;19.310;2024-03-06T01:39:17;44.27;;;44.13;;
84852;SDS011;75109;47.440;19.310;2024-03-06T01:39:50;46.70;;;46.40;;
84852;SDS011;75109;47.440;19.310;2024-03-06T01:40:23;46.90;;;45.67;;
84852;SDS011;75109;47.440;19.310;2024-03-06T01:41:03;48.33;;;47.33;;
84852;SDS011;75109;47.440;19.310;2024-03-06T01:41:37;45.23;;;45.10;;
84852;SDS011;75109;47.440;19.310;2024-03-06T01:42:09;47.40;;;46.77;;
84852;SDS011;75109;47.440;19.310;2024-03-06T01:42:42;46.67;;;46.53;;
84852;SDS011;75109;47.440;19.310;2024-03-06T01:43:20;46.33;;;46.03;;
84852;SDS011;75109;47.440;19.310;2024-03-06T01:43:55;46.17;;;46.13;;
84852;SDS011;75109;47.440;19.310;2024-03-06T01:44:28;47.87;;;47.00;;
84852;SDS011;75109;47.440;19.310;2024-03-06T01:45:01;49.10;;;47.53;;
84852;SDS011;75109;47.440;19.310;2024-03-06T01:45:35;47.93;;;46.07;;
84852;SDS011;75109;47.440;19.310;2024-03-06T01:46:09;47.67;;;46.07;;
84852;SDS011;75109;47.440;19.310;2024-03-06T01:46:42;47.93;;;47.33;;
84852;SDS011;75109;47.440;19.310;2024-03-06T01:47:16;45.97;;;45.77;;
84852;SDS011;75109;47.440;19.310;2024-03-06T01:48:09;47.00;;;45.67;;
84852;SDS011;75109;47.440;19.310;2024-03-06T01:48:43;46.23;;;46.17;;
84852;SDS011;75109;47.440;19.310;2024-03-06T01:49:16;48.83;;;48.03;;
84852;SDS011;75109;47.440;19.310;2024-03-06T01:49:53;46.90;;;46.60;;
84852;SDS011;75109;47.440;19.310;2024-03-06T01:50:29;46.33;;;45.30;;
84852;SDS011;75109;47.440;19.310;2024-03-06T01:51:03;48.67;;;47.03;;
84852;SDS011;75109;47.440;19.310;2024-03-06T01:51:38;48.50;;;46.60;;
84852;SDS011;75109;47.440;19.310;2024-03-06T01:52:12;49.00;;;46.87;;
84852;SDS011;75109;47.440;19.310;2024-03-06T01:52:50;47.20;;;46.03;;
84852;SDS011;75109;47.440;19.310;2024-03-06T01:53:45;46.10;;;45.77;;
84852;SDS011;75109;47.440;19.310;2024-03-06T01:54:20;47.07;;;46.77;;
84852;SDS011;75109;47.440;19.310;2024-03-06T01:54:57;48.93;;;47.63;;
84852;SDS011;75109;47.440;19.310;2024-03-06T01:55:29;47.57;;;46.37;;
84852;SDS011;75109;47.440;19.310;2024-03-06T01:56:02;46.20;;;46.10;;
84852;SDS011;75109;47.440;19.310;2024-03-06T01:56:36;47.17;;;46.87;;
84852;SDS011;75109;47.440;19.310;2024-03-06T01:57:17;47.90;;;46.90;;
84852;SDS011;75109;47.440;19.310;2024-03-06T01:57:51;46.47;;;45.70;;
84852;SDS011;75109;47.440;19.310;2024-03-06T01:58:32;47.00;;;45.57;;
84852;SDS011;75109;47.440;19.310;2024-03-06T01:59:05;50.37;;;48.73;;
84852;SDS011;75109;47.440;19.310;2024-03-06T01:59:37;48.93;;;47.27;;
84852;SDS011;75109;47.440;19.310;2024-03-06T02:00:10;47.43;;;46.53;;
84852;SDS011;75109;47.440;19.310;2024-03-06T02:00:45;47.80;;;47.67;;
84852;SDS011;75109;47.440;19.310;2024-03-06T02:01:17;47.07;;;47.00;;
84852;SDS011;75109;47.440;19.310;2024-03-06T02:01:56;46.80;;;46.73;;
84852;SDS011;75109;47.440;19.310;2024-03-06T02:02:37;47.63;;;46.40;;
84852;SDS011;75109;47.440;19.310;2024-03-06T02:03:10;48.60;;;47.13;;
84852;SDS011;75109;47.440;19.310;2024-03-06T02:03:43;47.00;;;46.13;;
84852;SDS011;75109;47.440;19.310;2024-03-06T02:04:19;49.00;;;47.67;;
84852;SDS011;75109;47.440;19.310;2024-03-06T02:04:55;47.00;;;46.23;;
84852;SDS011;75109;47.440;19.310;2024-03-06T02:05:37;46.80;;;46.47;;
84852;SDS011;75109;47.440;19.310;2024-03-06T02:06:09;46.83;;;46.60;;
84852;SDS011;75109;47.440;19.310;2024-03-06T02:06:51;49.33;;;49.00;;
84852;SDS011;75109;47.440;19.310;2024-03-06T02:07:25;49.70;;;49.57;;
84852;SDS011;75109;47.440;19.310;2024-03-06T02:07:58;49.63;;;48.73;;
84852;SDS011;75109;47.440;19.310;2024-03-06T02:08:32;47.90;;;47.63;;
84852;SDS011;75109;47.440;19.310;2024-03-06T02:09:05;51.77;;;50.50;;
84852;SDS011;75109;47.440;19.310;2024-03-06T02:09:58;49.77;;;48.47;;
84852;SDS011;75109;47.440;19.310;2024-03-06T02:10:40;50.77;;;48.93;;
84852;SDS011;75109;47.440;19.310;2024-03-06T02:11:31;48.67;;;47.73;;
84852;SDS011;75109;47.440;19.310;2024-03-06T02:12:08;49.80;;;49.53;;
84852;SDS011;75109;47.440;19.310;2024-03-06T02:12:41;49.10;;;49.03;;
84852;SDS011;75109;47.440;19.310;2024-03-06T02:13:24;49.90;;;49.33;;
84852;SDS011;75109;47.440;19.310;2024-03-06T02:13:58;49.27;;;47.93;;
84852;SDS011;75109;47.440;19.310;2024-03-06T02:14:31;50.77;;;49.63;;
84852;SDS011;75109;47.440;19.310;2024-03-06T02:15:05;49.63;;;49.07;;
84852;SDS011;75109;47.440;19.310;2024-03-06T02:15:59;50.67;;;49.57;;
84852;SDS011;75109;47.440;19.310;2024-03-06T02:16:33;50.60;;;48.70;;
84852;SDS011;75109;47.440;19.310;2024-03-06T02:17:06;49.27;;;48.87;;
84852;SDS011;75109;47.440;19.310;2024-03-06T02:17:48;50.23;;;49.53;;
84852;SDS011;75109;47.440;19.310;2024-03-06T02:18:22;48.80;;;48.77;;
84852;SDS011;75109;47.440;19.310;2024-03-06T02:18:54;48.13;;;47.90;;
84852;SDS011;75109;47.440;19.310;2024-03-06T02:19:39;48.27;;;48.13;;
84852;SDS011;75109;47.440;19.310;2024-03-06T02:20:25;48.63;;;48.30;;
84852;SDS011;75109;47.440;19.310;2024-03-06T02:21:13;51.00;;;49.73;;
84852;SDS011;75109;47.440;19.310;2024-03-06T02:21:46;50.03;;;48.50;;
84852;SDS011;75109;47.440;19.310;2024-03-06T02:22:19;50.10;;;48.40;;
84852;SDS011;75109;47.440;19.310;2024-03-06T02:22:51;48.53;;;47.03;;
84852;SDS011;75109;47.440;19.310;2024-03-06T02:23:23;47.53;;;47.33;;
84852;SDS011;75109;47.440;19.310;2024-03-06T02:23:56;49.53;;;49.47;;
84852;SDS011;75109;47.440;19.310;2024-03-06T02:24:30;50.43;;;49.90;;
84852;SDS011;75109;47.440;19.310;2024-03-06T02:25:03;51.27;;;50.63;;
84852;SDS011;75109;47.440;19.310;2024-03-06T02:25:37;48.53;;;48.17;;
84852;SDS011;75109;47.440;19.310;2024-03-06T02:26:14;50.13;;;49.03;;
84852;SDS011;75109;47.440;19.310;2024-03-06T02:26:47;49.87;;;48.93;;
84852;SDS011;75109;47.440;19.310;2024-03-06T02:27:19;50.27;;;49.60;;
84852;SDS011;75109;47.440;19.310;2024-03-06T02:27:52;49.13;;;48.93;;
84852;SDS011;75109;47.440;19.310;2024-03-06T02:28:31;47.60;;;47.43;;
84852;SDS011;75109;47.440;19.310;2024-03-06T02:29:07;49.83;;;48.90;;
84852;SDS011;75109;47.440;19.310;2024-03-06T02:29:46;50.60;;;48.77;;
84852;SDS011;75109;47.440;19.310;2024-03-06T02:30:21;51.37;;;49.23;;
84852;SDS011;75109;47.440;19.310;2024-03-06T02:30:54;50.77;;;48.87;;
84852;SDS011;75109;47.440;19.310;2024-03-06T02:31:26;49.53;;;49.07;;
84852;SDS011;75109;47.440;19.310;2024-03-06T02:31:59;48.03;;;48.03;;
84852;SDS011;75109;47.440;19.310;2024-03-06T02:32:36;47.83;;;47.40;;
84852;SDS011;75109;47.440;19.310;2024-03-06T02:33:09;51.93;;;50.70;;
84852;SDS011;75109;47.440;19.310;2024-03-06T02:33:42;53.00;;;51.47;;
84852;SDS011;75109;47.440;19.310;2024-03-06T02:34:25;51.63;;;50.63;;
84852;SDS011;75109;47.440;19.310;2024-03-06T02:34:57;51.93;;;50.53;;
84852;SDS011;75109;47.440;19.310;2024-03-06T02:35:32;49.10;;;47.80;;
84852;SDS011;75109;47.440;19.310;2024-03-06T02:36:08;48.90;;;47.43;;
84852;SDS011;75109;47.440;19.310;2024-03-06T02:36:57;49.57;;;48.33;;
84852;SDS011;75109;47.440;19.310;2024-03-06T02:37:31;50.53;;;48.87;;
84852;SDS011;75109;47.440;19.310;2024-03-06T02:38:07;49.27;;;47.90;;
84852;SDS011;75109;47.440;19.310;2024-03-06T02:38:40;49.57;;;47.93;;
84852;SDS011;75109;47.440;19.310;2024-03-06T02:39:16;49.57;;;47.93;;
84852;SDS011;75109;47.440;19.310;2024-03-06T02:39:49;48.40;;;46.67;;
84852;SDS011;75109;47.440;19.310;2024-03-06T02:40:21;49.27;;;47.60;;
84852;SDS011;75109;47.440;19.310;2024-03-06T02:40:54;48.40;;;47.87;;
84852;SDS011;75109;47.440;19.310;2024-03-06T02:41:27;48.17;;;48.13;;
84852;SDS011;75109;47.440;19.310;2024-03-06T02:41:59;48.17;;;48.07;;
84852;SDS011;75109;47.440;19.310;2024-03-06T02:42:31;47.00;;;47.00;;
84852;SDS011;75109;47.440;19.310;2024-03-06T02:43:06;45.40;;;45.40;;
84852;SDS011;75109;47.440;19.310;2024-03-06T02:43:38;47.10;;;47.03;;
84852;SDS011;75109;47.440;19.310;2024-03-06T02:44:13;47.73;;;47.07;;
84852;SDS011;75109;47.440;19.310;2024-03-06T02:44:49;49.43;;;47.77;;
84852;SDS011;75109;47.440;19.310;2024-03-06T02:45:23;49.30;;;47.77;;
84852;SDS011;75109;47.440;19.310;2024-03-06T02:45:55;48.00;;;46.73;;
84852;SDS011;75109;47.440;19.310;2024-03-06T02:46:27;45.40;;;45.27;;
84852;SDS011;75109;47.440;19.310;2024-03-06T02:47:02;46.80;;;46.10;;
84852;SDS011;75109;47.440;19.310;2024-03-06T02:47:37;48.77;;;47.07;;
84852;SDS011;75109;47.440;19.310;2024-03-06T02:48:31;46.00;;;45.27;;
84852;SDS011;75109;47.440;19.310;2024-03-06T02:49:12;48.00;;;47.23;;
84852;SDS011;75109;47.440;19.310;2024-03-06T02:49:47;46.70;;;46.50;;
84852;SDS011;75109;47.440;19.310;2024-03-06T02:50:28;46.57;;;45.80;;
84852;SDS011;75109;47.440;19.310;2024-03-06T02:52:08;47.00;;;45.73;;
84852;SDS011;75109;47.440;19.310;2024-03-06T02:52:41;46.83;;;45.27;;
84852;SDS011;75109;47.440;19.310;2024-03-06T02:53:14;47.03;;;45.43;;
84852;SDS011;75109;47.440;19.310;2024-03-06T02:53:49;43.83;;;43.60;;
84852;SDS011;75109;47.440;19.310;2024-03-06T02:54:25;45.43;;;44.60;;
84852;SDS011;75109;47.440;19.310;2024-03-06T02:54:58;47.23;;;45.80;;
84852;SDS011;75109;47.440;19.310;2024-03-06T02:55:37;44.53;;;43.80;;
84852;SDS011;75109;47.440;19.310;2024-03-06T02:56:15;45.40;;;44.37;;
84852;SDS011;75109;47.440;19.310;2024-03-06T02:57:07;46.00;;;44.83;;
84852;SDS011;75109;47.440;19.310;2024-03-06T02:57:40;46.27;;;44.70;;
84852;SDS011;75109;47.440;19.310;2024-03-06T02:58:17;46.93;;;45.13;;
84852;SDS011;75109;47.440;19.310;2024-03-06T02:58:58;45.40;;;44.00;;
84852;SDS011;75109;47.440;19.310;2024-03-06T02:59:34;45.87;;;45.07;;
84852;SDS011;75109;47.440;19.310;2024-03-06T03:00:42;47.27;;;46.37;;
84852;SDS011;75109;47.440;19.310;2024-03-06T03:01:16;46.93;;;46.07;;
84852;SDS011;75109;47.440;19.310;2024-03-06T03:02:03;44.50;;;44.30;;
84852;SDS011;75109;47.440;19.310;2024-03-06T03:02:35;43.90;;;43.33;;
84852;SDS011;75109;47.440;19.310;2024-03-06T03:03:10;42.70;;;42.43;;
84852;SDS011;75109;47.440;19.310;2024-03-06T03:04:11;45.27;;;44.33;;
84852;SDS011;75109;47.440;19.310;2024-03-06T03:04:48;45.80;;;44.63;;
84852;SDS011;75109;47.440;19.310;2024-03-06T03:05:36;45.17;;;43.43;;
84852;SDS011;75109;47.440;19.310;2024-03-06T03:06:30;43.07;;;42.83;;
84852;SDS011;75109;47.440;19.310;2024-03-06T03:07:02;44.77;;;44.33;;
84852;SDS011;75109;47.440;19.310;2024-03-06T03:07:54;44.50;;;43.67;;
84852;SDS011;75109;47.440;19.310;2024-03-06T03:08:28;44.60;;;43.10;;
84852;SDS011;75109;47.440;19.310;2024-03-06T03:09:04;41.97;;;41.47;;
84852;SDS011;75109;47.440;19.310;2024-03-06T03:09:36;41.80;;;41.73;;
84852;SDS011;75109;47.440;19.310;2024-03-06T03:10:14;41.43;;;40.97;;
84852;SDS011;75109;47.440;19.310;2024-03-06T03:11:00;41.57;;;41.10;;
84852;SDS011;75109;47.440;19.310;2024-03-06T03:11:33;43.87;;;43.07;;
84852;SDS011;75109;47.440;19.310;2024-03-06T03:12:21;42.20;;;41.90;;
84852;SDS011;75109;47.440;19.310;2024-03-06T03:13:22;43.80;;;43.47;;
84852;SDS011;75109;47.440;19.310;2024-03-06T03:14:04;46.23;;;45.53;;
84852;SDS011;75109;47.440;19.310;2024-03-06T03:14:36;46.30;;;45.23;;
84852;SDS011;75109;47.440;19.310;2024-03-06T03:15:09;45.57;;;44.20;;
84852;SDS011;75109;47.440;19.310;2024-03-06T03:15:42;44.20;;;43.13;;
84852;SDS011;75109;47.440;19.310;2024-03-06T03:16:15;44.07;;;43.67;;
84852;SDS011;75109;47.440;19.310;2024-03-06T03:16:52;43.70;;;43.40;;
84852;SDS011;75109;47.440;19.310;2024-03-06T03:17:26;44.10;;;42.97;;
84852;SDS011;75109;47.440;19.310;2024-03-06T03:18:12;45.07;;;44.07;;
84852;SDS011;75109;47.440;19.310;2024-03-06T03:18:47;44.00;;;42.73;;
84852;SDS011;75109;47.440;19.310;2024-03-06T03:19:53;42.43;;;42.03;;
84852;SDS011;75109;47.440;19.310;2024-03-06T03:20:28;42.97;;;42.03;;
84852;SDS011;75109;47.440;19.310;2024-03-06T03:21:01;44.27;;;44.10;;
84852;SDS011;75109;47.440;19.310;2024-03-06T03:21:43;44.97;;;44.47;;
84852;SDS011;75109;47.440;19.310;2024-03-06T03:22:16;44.23;;;43.67;;
84852;SDS011;75109;47.440;19.310;2024-03-06T03:22:48;42.33;;;41.97;;
84852;SDS011;75109;47.440;19.310;2024-03-06T03:23:22;43.40;;;42.33;;
84852;SDS011;75109;47.440;19.310;2024-03-06T03:23:56;43.00;;;41.97;;
84852;SDS011;75109;47.440;19.310;2024-03-06T03:24:29;44.03;;;42.97;;
84852;SDS011;75109;47.440;19.310;2024-03-06T03:25:01;45.93;;;44.43;;
84852;SDS011;75109;47.440;19.310;2024-03-06T03:25:34;43.87;;;42.53;;